Time;durP1;ratioP1;P1;durP2;ratioP2;P2;SDS_P1;SDS_P2;PMS_P1;PMS_P2;Temp;Humidity;BMP_temperature;BMP_pressure;BME280_temperature;BME280_humidity;BME280_pressure;Samples;Min_cycle;Max_cycle;Signal;HPM_P1;HPM_P2
2023/10/17 00:01:59;;;;;;;10.40;7.35;;;;;;;6.33;100.00;101857.19;5001962;28;20531;-70
2023/10/17 00:04:32;;;;;;;12.57;7.47;;;;;;;6.34;100.00;101845.69;5002331;28;20072;-71
2023/10/17 00:06:58;;;;;;;8.85;7.05;;;;;;;6.33;100.00;101845.75;5003335;28;20029;-70
2023/10/17 00:09:24;;;;;;;9.45;7.70;;;;;;;6.24;100.00;101839.72;4980291;28;20454;-70
2023/10/17 00:14:27;;;;;;;9.10;7.13;;;;;;;6.19;100.00;101845.97;4996048;28;20038;-69
2023/10/17 00:16:56;;;;;;;10.73;7.75;;;;;;;6.19;100.00;101841.56;5000653;28;20227;-69
2023/10/17 00:19:31;;;;;;;9.25;7.50;;;;;;;6.14;100.00;101840.75;5000822;28;20057;-69
2023/10/17 00:21:59;;;;;;;10.35;7.05;;;;;;;6.07;100.00;101839.13;4999732;28;20036;-69
2023/10/17 00:24:24;;;;;;;9.30;6.53;;;;;;;6.02;100.00;101834.78;5000998;28;20277;-69
2023/10/17 00:26:50;;;;;;;9.05;7.57;;;;;;;6.06;100.00;101840.03;4999953;28;20720;-70
2023/10/17 00:29:16;;;;;;;10.07;7.57;;;;;;;6.04;100.00;101841.81;5001670;28;20037;-68
2023/10/17 00:31:44;;;;;;;7.75;6.60;;;;;;;6.03;100.00;101839.19;4998017;28;20117;-70
2023/10/17 00:34:21;;;;;;;8.40;7.20;;;;;;;6.03;100.00;101831.28;4993127;28;20029;-69
2023/10/17 00:36:48;;;;;;;8.68;7.55;;;;;;;6.01;100.00;101822.47;5000008;28;20029;-70
2023/10/17 00:39:30;;;;;;;11.00;8.00;;;;;;;5.99;100.00;101820.75;5001285;28;20026;-69
2023/10/17 00:44:31;;;;;;;8.50;6.95;;;;;;;6.05;100.00;101808.31;5000642;28;20025;-69
2023/10/17 00:46:58;;;;;;;8.27;7.40;;;;;;;6.09;100.00;101810.00;4997971;28;20056;-69
2023/10/17 00:49:25;;;;;;;10.30;6.88;;;;;;;6.12;100.00;101810.84;5001349;28;20040;-68
2023/10/17 00:51:53;;;;;;;7.93;6.93;;;;;;;6.16;100.00;101809.03;5002032;28;20022;-68
2023/10/17 00:54:20;;;;;;;10.90;7.10;;;;;;;6.13;100.00;101817.88;5001635;28;20112;-69
2023/10/17 00:56:46;;;;;;;10.75;6.78;;;;;;;6.14;100.00;101816.94;5001083;28;20064;-69
2023/10/17 00:59:12;;;;;;;9.68;6.63;;;;;;;6.17;100.00;101808.13;5001665;28;20022;-69
2023/10/17 01:01:40;;;;;;;7.80;6.82;;;;;;;6.18;100.00;101817.78;4993678;28;20353;-69
2023/10/17 01:04:05;;;;;;;9.13;6.55;;;;;;;6.16;100.00;101816.94;4997902;28;20119;-70
2023/10/17 01:09:07;;;;;;;9.18;7.20;;;;;;;6.17;100.00;101816.03;5001605;28;20068;-69
2023/10/17 01:11:38;;;;;;;9.90;7.00;;;;;;;6.19;100.00;101816.91;4989770;28;20045;-68
2023/10/17 01:14:04;;;;;;;11.20;7.20;;;;;;;6.24;100.00;101825.63;5002462;28;20269;-70
2023/10/17 01:16:39;;;;;;;9.95;7.10;;;;;;;6.27;100.00;101827.31;5000851;28;20058;-69
2023/10/17 01:19:05;;;;;;;9.30;7.18;;;;;;;6.23;100.00;101826.53;4993101;28;20032;-70
2023/10/17 01:21:31;;;;;;;9.98;7.40;;;;;;;6.23;100.00;101827.41;4985152;28;20040;-69
2023/10/17 01:23:57;;;;;;;9.82;6.97;;;;;;;6.24;100.00;101823.84;4996376;28;20026;-69
2023/10/17 01:26:26;;;;;;;9.43;7.28;;;;;;;6.27;100.00;101828.22;4998241;28;20040;-69
2023/10/17 01:28:53;;;;;;;10.18;6.85;;;;;;;6.21;100.00;101825.66;4999695;28;20044;-69
2023/10/17 01:31:22;;;;;;;9.65;7.65;;;;;;;6.22;100.00;101828.28;5001669;28;20030;-69
2023/10/17 01:33:55;;;;;;;8.68;7.18;;;;;;;6.23;100.00;101814.19;5004068;28;20034;-70
2023/10/17 01:36:21;;;;;;;8.60;7.00;;;;;;;6.20;100.00;101806.28;5006639;28;20409;-71
2023/10/17 01:38:49;;;;;;;11.80;8.05;;;;;;;6.12;100.00;101800.25;5004831;28;20525;-71
2023/10/17 01:41:19;;;;;;;9.23;8.13;;;;;;;6.15;100.00;101812.56;5005075;28;20026;-69
2023/10/17 01:43:48;;;;;;;9.48;7.68;;;;;;;6.15;100.00;101809.94;5002814;28;20492;-70
2023/10/17 01:46:24;;;;;;;10.70;7.85;;;;;;;6.13;100.00;101804.66;5005076;28;20048;-70
2023/10/17 01:48:55;;;;;;;10.30;7.82;;;;;;;6.12;100.00;101809.97;5006441;28;20026;-69
2023/10/17 01:51:21;;;;;;;10.25;8.00;;;;;;;6.11;100.00;101802.94;5005149;28;20044;-70
2023/10/17 01:53:51;;;;;;;12.77;8.02;;;;;;;6.06;100.00;101789.81;4986514;28;20030;-69
2023/10/17 01:56:25;;;;;;;12.40;8.75;;;;;;;6.06;100.00;101789.81;5004426;28;20469;-70
2023/10/17 01:58:50;;;;;;;10.90;8.60;;;;;;;6.05;100.00;101782.75;4998383;28;20033;-70
2023/10/17 02:01:29;;;;;;;9.98;8.30;;;;;;;6.06;100.00;101783.63;4981655;28;20510;-70
2023/10/17 02:04:03;;;;;;;10.45;9.35;;;;;;;6.04;100.00;101775.75;5004798;28;20097;-70
2023/10/17 02:06:30;;;;;;;15.68;10.55;;;;;;;6.02;100.00;101777.56;5002526;28;20025;-69
2023/10/17 02:08:58;;;;;;;11.32;10.10;;;;;;;6.02;100.00;101769.63;5004712;28;20072;-69
2023/10/17 02:11:24;;;;;;;10.95;9.73;;;;;;;6.03;100.00;101768.72;5003396;28;20042;-69
2023/10/17 02:13:57;;;;;;;14.60;10.43;;;;;;;6.01;100.00;101762.56;5003974;28;20096;-69
2023/10/17 02:16:24;;;;;;;13.13;11.35;;;;;;;6.01;100.00;101759.94;5003613;28;20030;-69
2023/10/17 02:18:50;;;;;;;13.35;10.98;;;;;;;6.03;100.00;101759.91;5003185;28;20095;-69
2023/10/17 02:21:15;;;;;;;13.77;10.93;;;;;;;6.00;100.00;101752.91;5002685;28;20026;-69
2023/10/17 02:23:49;;;;;;;14.00;10.52;;;;;;;6.01;100.00;101753.78;5004578;28;20061;-68
2023/10/17 02:26:21;;;;;;;15.52;10.70;;;;;;;5.98;100.00;101752.94;5005803;28;20455;-69
2023/10/17 02:28:53;;;;;;;13.80;11.90;;;;;;;6.01;100.00;101745.84;4986886;28;20068;-71
2023/10/17 02:31:29;;;;;;;16.70;11.45;;;;;;;6.02;100.00;101743.19;5001765;28;20025;-68
2023/10/17 02:33:57;;;;;;;14.02;11.10;;;;;;;6.01;100.00;101743.19;5002949;28;20336;-69
2023/10/17 02:36:23;;;;;;;15.90;12.05;;;;;;;5.98;100.00;101754.72;5002614;28;20109;-69
2023/10/17 02:38:49;;;;;;;12.77;11.32;;;;;;;5.99;100.00;101759.09;5001364;28;20518;-69
2023/10/17 02:41:23;;;;;;;17.13;12.43;;;;;;;5.98;100.00;101760.88;4998397;28;20040;-70
2023/10/17 02:43:55;;;;;;;15.07;12.35;;;;;;;5.97;100.00;101760.88;4999106;28;20419;-68
2023/10/17 02:46:28;;;;;;;14.07;11.90;;;;;;;5.95;100.00;101755.63;4998380;28;20050;-70
2023/10/17 02:48:55;;;;;;;18.02;14.13;;;;;;;5.92;100.00;101755.66;5001359;28;20034;-70
2023/10/17 02:53:53;;;;;;;14.27;12.50;;;;;;;5.94;100.00;101753.88;5002232;28;20061;-70
2023/10/17 02:56:19;;;;;;;17.52;13.05;;;;;;;5.95;100.00;101757.41;5001803;28;20034;-70
2023/10/17 02:58:48;;;;;;;14.65;13.10;;;;;;;5.94;100.00;101753.88;4980714;28;20030;-69
2023/10/17 03:01:14;;;;;;;14.60;13.00;;;;;;;5.90;100.00;101760.09;4997901;28;20030;-68
2023/10/17 03:03:40;;;;;;;16.15;13.80;;;;;;;5.88;100.00;101753.94;5001945;28;20052;-69
2023/10/17 03:06:05;;;;;;;15.52;13.85;;;;;;;5.88;100.00;101753.06;5002154;28;20101;-68
2023/10/17 03:08:36;;;;;;;15.13;13.60;;;;;;;5.79;100.00;101759.38;5002287;28;20117;-70
2023/10/17 03:11:02;;;;;;;16.63;13.65;;;;;;;5.79;100.00;101756.75;4996205;28;20029;-69
2023/10/17 03:13:40;;;;;;;15.75;14.05;;;;;;;5.79;100.00;101751.47;4999149;28;20099;-70
2023/10/17 03:19:05;;;;;;;17.63;14.48;;;;;;;5.73;100.00;101749.81;4985427;28;20507;-69
2023/10/17 03:21:34;;;;;;;18.95;15.70;;;;;;;5.72;100.00;101753.31;4984449;28;20045;-67
2023/10/17 03:24:04;;;;;;;17.23;14.93;;;;;;;5.69;100.00;101748.09;5004039;28;20041;-70
2023/10/17 03:26:39;;;;;;;18.63;16.08;;;;;;;5.74;100.00;101753.31;4980438;28;20087;-69
2023/10/17 03:29:13;;;;;;;17.98;15.65;;;;;;;5.71;100.00;101756.00;5000217;28;20034;-70
2023/10/17 03:31:41;;;;;;;18.83;16.35;;;;;;;5.72;100.00;101763.00;4995801;28;20033;-71
2023/10/17 03:34:07;;;;;;;18.15;16.05;;;;;;;5.73;100.00;101759.50;4999237;28;20022;-69
2023/10/17 03:36:41;;;;;;;19.35;16.83;;;;;;;5.72;100.00;101758.59;4998928;28;20048;-69
2023/10/17 03:39:26;;;;;;;17.67;15.75;;;;;;;5.72;100.00;101773.59;5000979;28;20032;-69
2023/10/17 03:41:56;;;;;;;20.40;16.73;;;;;;;5.72;100.00;101768.31;4998607;28;20030;-69
2023/10/17 03:44:29;;;;;;;17.92;16.02;;;;;;;5.72;100.00;101765.66;5000144;28;20124;-69
2023/10/17 03:46:55;;;;;;;24.33;17.15;;;;;;;5.75;100.00;101769.13;4999659;28;20046;-69
2023/10/17 03:49:22;;;;;;;21.00;17.05;;;;;;;5.71;100.00;101766.56;4992876;28;20044;-69
2023/10/17 03:51:54;;;;;;;19.65;17.40;;;;;;;5.77;100.00;101765.59;4998343;28;20030;-68
2023/10/17 03:54:22;;;;;;;18.50;16.25;;;;;;;5.74;100.00;101767.38;4998956;28;20523;-69
2023/10/17 03:57:02;;;;;;;19.70;17.65;;;;;;;5.76;100.00;101754.16;5000784;28;20156;-70
2023/10/17 03:59:41;;;;;;;19.85;17.75;;;;;;;5.75;100.00;101762.97;4997976;28;20029;-69
2023/10/17 04:02:19;;;;;;;20.17;17.38;;;;;;;5.74;100.00;101767.38;4999259;28;20734;-70
2023/10/17 04:04:53;;;;;;;22.48;17.67;;;;;;;5.69;100.00;101763.09;4997673;28;20327;-69
2023/10/17 04:07:23;;;;;;;22.88;18.90;;;;;;;5.73;100.00;101759.50;5001767;28;20052;-69
2023/10/17 04:12:38;;;;;;;23.67;19.08;;;;;;;5.77;100.00;101763.84;4996919;28;20065;-69
2023/10/17 04:15:07;;;;;;;21.80;18.45;;;;;;;5.75;100.00;101755.06;4996760;28;20037;-69
2023/10/17 04:17:36;;;;;;;20.48;18.25;;;;;;;5.75;100.00;101755.06;4997801;28;20128;-68
2023/10/17 04:20:11;;;;;;;20.92;18.67;;;;;;;5.72;100.00;101758.59;5001894;28;20040;-69
2023/10/17 04:22:43;;;;;;;21.70;19.27;;;;;;;5.71;100.00;101761.28;5000466;28;20045;-69
2023/10/17 04:25:33;;;;;;;23.85;19.42;;;;;;;5.71;100.00;101763.91;5001677;28;20029;-69
2023/10/17 04:27:59;;;;;;;23.10;19.45;;;;;;;5.69;100.00;101763.09;4979698;28;20042;-70
2023/10/17 04:30:46;;;;;;;23.70;19.58;;;;;;;5.72;100.00;101773.59;5000670;28;20545;-69
2023/10/17 04:33:12;;;;;;;22.13;19.83;;;;;;;5.71;100.00;101779.78;4998006;28;20040;-69
2023/10/17 04:35:48;;;;;;;23.17;20.23;;;;;;;5.66;100.00;101774.56;5001237;28;20041;-68
2023/10/17 04:38:26;;;;;;;23.90;19.90;;;;;;;5.64;100.00;101765.81;4992227;28;20480;-70
2023/10/17 04:41:13;;;;;;;22.77;20.15;;;;;;;5.67;100.00;101764.88;4997608;28;20359;-69
2023/10/17 04:43:54;;;;;;;25.05;20.70;;;;;;;5.65;100.00;101764.03;5001174;28;20032;-69
2023/10/17 04:46:25;;;;;;;23.52;19.63;;;;;;;5.66;100.00;101761.34;4999570;28;20066;-68
2023/10/17 04:48:52;;;;;;;24.00;19.67;;;;;;;5.66;100.00;101773.69;5001908;28;20034;-69
2023/10/17 04:53:49;;;;;;;23.15;19.13;;;;;;;5.66;100.00;101765.78;4997038;28;20030;-69
2023/10/17 04:56:21;;;;;;;25.77;20.48;;;;;;;5.69;100.00;101771.88;5001387;28;20026;-71
2023/10/17 05:01:46;;;;;;;25.33;19.98;;;;;;;5.64;100.00;101763.16;4999672;28;20030;-70
2023/10/17 05:04:19;;;;;;;25.02;19.80;;;;;;;5.60;100.00;101752.66;4997120;28;20050;-69
2023/10/17 05:07:07;;;;;;;23.58;20.92;;;;;;;5.62;100.00;101756.16;4983845;28;20352;-70
2023/10/17 06:17:49;;;;;;;25.08;18.88;;;;;;;5.56;100.00;101735.09;4993487;28;20099;-69
2023/10/17 06:20:19;;;;;;;21.75;18.50;;;;;;;5.53;100.00;101732.53;4994466;28;20471;-69
2023/10/17 06:28:27;;;;;;;20.55;18.33;;;;;;;5.58;100.00;101738.59;4942748;29;20973;-70
2023/10/17 06:33:37;;;;;;;22.52;19.77;;;;;;;5.62;100.00;101756.16;4936649;29;20078;-70
2023/10/17 06:36:24;;;;;;;22.65;19.25;;;;;;;5.63;100.00;101748.19;4933590;29;20410;-67
2023/10/17 06:38:49;;;;;;;23.55;19.80;;;;;;;5.66;100.00;101753.44;4940677;29;20039;-70
2023/10/17 06:41:27;;;;;;;26.20;20.20;;;;;;;5.66;100.00;101744.63;4931856;28;20163;-71
2023/10/17 06:43:58;;;;;;;20.60;18.40;;;;;;;5.68;100.00;101735.78;4937438;29;20038;-68
2023/10/17 06:46:36;;;;;;;23.00;18.75;;;;;;;5.78;100.00;101749.72;4936030;28;20063;-70
2023/10/17 06:49:08;;;;;;;22.40;19.15;;;;;;;5.80;100.00;101750.56;4929012;29;20043;-69
2023/10/17 06:51:36;;;;;;;21.80;18.40;;;;;;;5.84;100.00;101754.91;4942028;29;20529;-68
2023/10/17 06:54:06;;;;;;;21.63;19.33;;;;;;;5.87;100.00;101757.50;4936350;28;20126;-67
2023/10/17 06:56:38;;;;;;;22.05;17.58;;;;;;;5.90;100.00;101762.72;4932510;28;20082;-67
2023/10/17 06:59:05;;;;;;;21.70;19.02;;;;;;;5.96;100.00;101769.72;4946364;28;20042;-70
2023/10/17 07:01:33;;;;;;;20.77;18.60;;;;;;;5.96;100.00;101757.38;4996523;28;20025;-69
2023/10/17 07:04:01;;;;;;;21.17;18.83;;;;;;;5.99;100.00;101757.31;4992911;28;21374;-69
2023/10/17 07:06:28;;;;;;;23.83;18.73;;;;;;;6.04;100.00;101759.88;4998672;28;20560;-69
2023/10/17 07:08:54;;;;;;;20.92;18.13;;;;;;;6.06;100.00;101762.47;4999365;28;20018;-69
2023/10/17 07:13:54;;;;;;;20.52;18.40;;;;;;;6.14;100.00;101765.88;4998085;28;20065;-69
2023/10/17 07:16:33;;;;;;;21.20;18.90;;;;;;;6.15;100.00;101757.06;4994608;28;20291;-68
2023/10/17 07:22:26;;;;;;;21.00;18.67;;;;;;;6.22;100.00;101750.75;5001143;28;20057;-69
2023/10/17 07:24:36;;;;;;;21.08;18.70;;;;;;;6.23;100.00;101747.22;4991151;28;20072;-68
2023/10/17 07:27:03;;;;;;;22.00;18.40;;;;;;;6.23;100.00;101742.81;4996297;28;20747;-69
2023/10/17 07:29:36;;;;;;;20.80;18.35;;;;;;;6.25;100.00;101742.75;5002757;28;20464;-71
2023/10/17 07:32:09;;;;;;;20.13;18.15;;;;;;;6.24;100.00;101733.09;5012584;28;20137;-70
2023/10/17 07:34:36;;;;;;;20.88;18.20;;;;;;;6.32;100.00;101739.09;4981472;28;20017;-69
2023/10/17 07:40:00;;;;;;;21.20;18.10;;;;;;;6.45;100.00;101751.19;5000188;28;20038;-69
2023/10/17 07:42:32;;;;;;;19.15;17.10;;;;;;;6.59;100.00;101748.25;4998124;28;20026;-69
2023/10/17 07:45:03;;;;;;;18.73;16.80;;;;;;;6.75;100.00;101762.06;4998853;28;20495;-68
2023/10/17 07:47:34;;;;;;;21.23;17.15;;;;;;;6.84;100.00;101750.41;5001817;28;20056;-70
2023/10/17 07:50:00;;;;;;;19.10;16.13;;;;;;;6.91;100.00;101760.84;4998058;28;20158;-70
2023/10/17 07:52:26;;;;;;;18.13;16.23;;;;;;;6.93;100.00;101752.88;5000567;28;20057;-69
2023/10/17 07:57:40;;;;;;;16.55;14.88;;;;;;;6.94;100.00;101751.97;4993820;28;20216;-70
2023/10/17 08:02:55;;;;;;;17.77;15.18;;;;;;;6.92;100.00;101757.28;5001047;28;20543;-69
2023/10/17 08:05:27;;;;;;;17.08;14.82;;;;;;;6.86;100.00;101754.78;5001013;28;20026;-69
2023/10/17 08:08:04;;;;;;;15.45;13.85;;;;;;;6.78;100.00;101754.06;5001133;28;20030;-68
2023/10/17 08:10:32;;;;;;;17.25;14.52;;;;;;;6.68;100.00;101747.22;4990825;28;20057;-69
2023/10/17 08:12:58;;;;;;;16.65;14.43;;;;;;;6.59;100.00;101742.97;5000169;28;20065;-69
2023/10/17 08:15:32;;;;;;;16.45;13.95;;;;;;;6.56;100.00;101744.81;4994109;28;20113;-69
2023/10/17 08:18:01;;;;;;;17.27;14.98;;;;;;;6.48;100.00;101747.63;4992765;28;20038;-68
2023/10/17 08:20:45;;;;;;;15.95;14.25;;;;;;;6.46;100.00;101749.41;5000444;28;20034;-69
2023/10/17 08:23:11;;;;;;;15.88;14.27;;;;;;;6.45;100.00;101745.91;5001422;28;20552;-69
2023/10/17 08:25:59;;;;;;;16.92;15.18;;;;;;;6.46;100.00;101747.63;4998876;28;20049;-69
2023/10/17 08:31:22;;;;;;;;;;;;;;;6.54;100.00;101738.69;5002613;28;20454;-69
2023/10/17 08:34:15;;;;;;;17.27;14.82;;;;;;;6.59;100.00;101736.81;4999980;28;19917;-69
2023/10/17 08:42:00;;;;;;;15.15;13.55;;;;;;;6.76;100.00;101744.41;4991797;28;20492;-68
2023/10/17 08:44:32;;;;;;;14.77;13.25;;;;;;;6.84;100.00;101748.63;4978463;28;20036;-68
2023/10/17 08:46:58;;;;;;;14.70;13.13;;;;;;;6.88;100.00;101738.88;5000597;28;20049;-69
2023/10/17 08:49:27;;;;;;;14.20;12.80;;;;;;;6.90;100.00;101740.59;5000668;28;20030;-70
2023/10/17 08:51:53;;;;;;;14.43;12.80;;;;;;;6.97;100.00;101736.88;4995401;28;20029;-70
2023/10/17 08:54:19;;;;;;;15.60;11.85;;;;;;;7.03;100.00;101749.13;4992421;28;20399;-69
2023/10/17 08:56:47;;;;;;;13.98;11.32;;;;;;;7.13;100.00;101753.31;4997154;28;20053;-71
2023/10/17 08:59:13;;;;;;;14.30;11.75;;;;;;;7.19;100.00;101747.91;4996706;28;20480;-70
2023/10/17 09:02:00;;;;;;;12.60;10.85;;;;;;;7.28;100.00;101753.88;5001663;28;20661;-72
2023/10/17 09:04:31;;;;;;;14.88;11.57;;;;;;;7.40;100.00;101750.97;4992855;28;20094;-70
2023/10/17 09:07:08;;;;;;;11.60;10.48;;;;;;;7.45;100.00;101746.41;4997578;28;20619;-71
2023/10/17 09:09:34;;;;;;;10.52;9.23;;;;;;;7.53;100.00;101756.84;4989749;28;20583;-70
2023/10/17 09:12:19;;;;;;;10.35;9.20;;;;;;;7.59;100.00;101744.31;4983394;28;20048;-72
2023/10/17 09:14:48;;;;;;;10.65;9.13;;;;;;;7.72;100.00;101750.16;5001556;28;20036;-72
2023/10/17 09:17:20;;;;;;;11.27;9.90;;;;;;;7.79;100.00;101748.25;5001974;28;20044;-70
2023/10/17 09:19:47;;;;;;;11.05;9.95;;;;;;;7.84;100.00;101738.41;5001554;28;20037;-70
2023/10/17 09:22:17;;;;;;;10.00;9.00;;;;;;;7.89;100.00;101739.16;4995510;28;20180;-72
2023/10/17 09:24:46;;;;;;;10.40;9.35;;;;;;;7.95;100.00;101739.88;4995798;28;20029;-70
2023/10/17 09:27:15;;;;;;;10.57;8.80;;;;;;;8.04;100.00;101741.41;5000432;28;20117;-71
2023/10/17 09:29:51;;;;;;;10.15;8.38;;;;;;;8.13;100.00;101746.47;5001942;28;20160;-70
2023/10/17 09:32:37;;;;;;;11.10;7.88;;;;;;;8.27;100.00;101742.56;4999199;28;20244;-72
2023/10/17 09:35:10;;;;;;;9.40;7.68;;;;;;;8.38;98.82;101748.50;4999294;28;20033;-71
2023/10/17 09:37:39;;;;;;;11.38;8.55;;;;;;;8.57;99.26;101746.19;5000595;28;20069;-70
2023/10/17 09:40:11;;;;;;;8.10;7.30;;;;;;;8.71;96.49;101736.06;5001004;28;20045;-70
2023/10/17 09:42:37;;;;;;;8.55;7.63;;;;;;;9.31;97.42;101735.13;4997785;28;20034;-70
2023/10/17 09:45:06;;;;;;;9.63;7.68;;;;;;;10.09;90.48;101739.69;5000583;28;20431;-71
2023/10/17 09:47:35;;;;;;;10.38;7.07;;;;;;;11.27;84.70;101736.19;5000126;28;20145;-72
2023/10/17 09:50:03;;;;;;;7.80;6.13;;;;;;;12.05;78.56;101734.84;4997149;28;20483;-71
2023/10/17 09:52:30;;;;;;;6.60;5.55;;;;;;;13.16;73.49;101735.09;4996414;28;20030;-71
2023/10/17 09:54:58;;;;;;;5.68;5.07;;;;;;;14.70;65.53;101731.81;4997795;28;20034;-71
2023/10/17 09:57:25;;;;;;;6.20;4.97;;;;;;;16.13;60.39;101731.75;5006165;28;20170;-71
2023/10/17 10:00:06;;;;;;;5.85;4.35;;;;;;;17.01;57.19;101733.47;5003905;28;20028;-72
2023/10/17 10:02:36;;;;;;;5.38;4.35;;;;;;;17.70;52.24;101734.38;4982273;28;20062;-73
2023/10/17 10:05:21;;;;;;;4.10;3.55;;;;;;;18.97;53.82;101746.31;5003924;28;20026;-72
2023/10/17 10:07:51;;;;;;;4.57;3.83;;;;;;;18.90;46.55;101746.75;5002625;28;20030;-72
2023/10/17 10:10:48;;;;;;;5.43;4.22;;;;;;;19.41;51.20;101735.84;5004655;28;20029;-71
2023/10/17 10:13:14;;;;;;;4.07;3.67;;;;;;;20.21;43.21;101743.34;5005499;28;20429;-71
2023/10/17 10:15:52;;;;;;;4.30;3.63;;;;;;;20.86;43.44;101750.88;5005586;28;20056;-71
2023/10/17 10:18:36;;;;;;;3.85;3.10;;;;;;;20.72;44.18;101753.78;5000917;28;20034;-70
2023/10/17 10:21:03;;;;;;;4.68;3.13;;;;;;;20.29;39.93;101749.03;5002190;28;20038;-70
2023/10/17 10:23:34;;;;;;;5.57;3.65;;;;;;;20.57;39.98;101747.75;5003627;28;20559;-70
2023/10/17 10:26:14;;;;;;;5.68;3.30;;;;;;;21.00;42.45;101738.06;5002010;28;20021;-69
2023/10/17 10:28:43;;;;;;;4.85;3.53;;;;;;;21.25;38.95;101735.06;5001281;28;20063;-71
2023/10/17 10:31:20;;;;;;;5.22;3.25;;;;;;;22.08;40.16;101726.34;5003943;28;20518;-69
2023/10/17 10:33:48;;;;;;;4.10;3.42;;;;;;;21.62;36.41;101724.81;5003420;28;20112;-70
2023/10/17 10:36:14;;;;;;;4.35;3.20;;;;;;;21.32;36.85;101724.66;4993992;28;20034;-71
2023/10/17 10:38:40;;;;;;;6.38;3.25;;;;;;;21.64;36.85;101727.38;5003323;28;20037;-71
2023/10/17 10:41:06;;;;;;;6.65;3.67;;;;;;;21.76;36.37;101725.50;5004989;28;20045;-70
2023/10/17 10:43:31;;;;;;;4.68;3.45;;;;;;;21.65;36.42;101718.25;5003695;28;20503;-69
2023/10/17 10:45:57;;;;;;;5.53;3.63;;;;;;;21.72;35.78;101716.75;5001212;28;20109;-70
2023/10/17 10:48:23;;;;;;;5.25;3.38;;;;;;;22.09;35.89;101716.34;4999536;28;20030;-71
2023/10/17 10:50:54;;;;;;;5.85;3.53;;;;;;;22.21;34.28;101707.19;4998890;28;20034;-71
2023/10/17 10:53:23;;;;;;;6.22;3.38;;;;;;;22.32;35.33;101707.13;5002343;28;20503;-70
2023/10/17 10:56:00;;;;;;;4.72;3.40;;;;;;;22.64;36.50;101700.72;5002965;28;20030;-69
2023/10/17 10:58:26;;;;;;;5.82;3.42;;;;;;;22.99;34.37;101702.16;5002149;28;20073;-72
2023/10/17 11:00:56;;;;;;;3.72;3.33;;;;;;;23.55;33.52;101698.84;4998734;28;20175;-71
2023/10/17 11:03:23;;;;;;;5.05;3.28;;;;;;;23.82;32.74;101692.72;4979463;28;20029;-71
2023/10/17 11:05:57;;;;;;;5.05;3.55;;;;;;;23.65;33.41;101694.31;5003636;28;20022;-72
2023/10/17 11:08:24;;;;;;;3.58;3.15;;;;;;;23.74;32.81;101690.72;4999476;28;20030;-69
2023/10/17 11:10:50;;;;;;;3.63;3.15;;;;;;;23.82;31.74;101687.28;4993754;28;20065;-71
2023/10/17 11:13:15;;;;;;;3.78;3.20;;;;;;;23.81;31.74;101681.00;4999023;28;20450;-73
2023/10/17 11:15:44;;;;;;;4.70;3.22;;;;;;;23.70;32.49;101674.84;4997603;28;20455;-71
2023/10/17 11:18:10;;;;;;;4.60;3.13;;;;;;;24.45;31.77;101676.75;5001738;28;20124;-70
2023/10/17 11:20:36;;;;;;;5.55;3.28;;;;;;;24.32;30.22;101679.78;5005264;28;20038;-71
2023/10/17 11:23:08;;;;;;;6.15;3.08;;;;;;;24.86;31.36;101677.31;5003531;28;20041;-70
2023/10/17 11:25:34;;;;;;;4.93;3.10;;;;;;;25.47;30.05;101667.66;5001343;28;20073;-72
2023/10/17 11:28:02;;;;;;;4.50;2.97;;;;;;;25.39;29.15;101662.13;4982889;28;20037;-71
2023/10/17 11:30:35;;;;;;;4.47;3.25;;;;;;;25.34;29.37;101655.25;5000406;28;20144;-71
2023/10/17 11:33:04;;;;;;;4.97;3.15;;;;;;;24.66;29.27;101664.78;5001786;28;20061;-70
2023/10/17 11:35:30;;;;;;;5.97;3.33;;;;;;;24.79;29.80;101658.00;5000493;28;20404;-68
2023/10/17 11:37:58;;;;;;;4.10;3.28;;;;;;;24.51;30.04;101654.41;4985104;28;20025;-72
2023/10/17 11:40:38;;;;;;;4.85;3.10;;;;;;;23.97;32.17;101653.22;5000722;28;20467;-70
2023/10/17 11:43:16;;;;;;;5.20;3.28;;;;;;;24.46;32.05;101658.59;5003031;28;20407;-70
2023/10/17 11:45:42;;;;;;;4.32;3.30;;;;;;;24.77;28.93;101651.00;4997066;28;20445;-72
2023/10/17 11:48:36;;;;;;;5.03;3.15;;;;;;;25.21;31.18;101648.50;4982461;28;20046;-70
2023/10/17 11:51:05;;;;;;;6.43;3.22;;;;;;;24.52;29.89;101641.66;4999785;28;20026;-71
2023/10/17 11:53:31;;;;;;;4.00;2.75;;;;;;;24.83;29.65;101639.47;5000745;28;20496;-71
2023/10/17 11:55:56;;;;;;;4.30;2.88;;;;;;;24.46;28.44;101639.53;4999769;28;20105;-73
2023/10/17 11:58:25;;;;;;;3.67;2.50;;;;;;;23.94;30.40;101639.91;4997881;28;20464;-70
2023/10/17 12:00:51;;;;;;;3.45;2.33;;;;;;;23.79;29.12;101638.69;5002521;28;20503;-70
2023/10/17 12:03:20;;;;;;;3.42;2.72;;;;;;;24.09;30.26;101640.34;4991386;28;20036;-70
2023/10/17 12:05:48;;;;;;;3.55;2.60;;;;;;;24.82;29.05;101632.34;5003317;28;20068;-70
2023/10/17 12:08:23;;;;;;;3.60;2.70;;;;;;;25.36;28.36;101635.16;4993122;28;20032;-70
2023/10/17 12:10:53;;;;;;;4.03;2.97;;;;;;;25.23;28.12;101641.84;5002064;28;20116;-70
2023/10/17 12:13:19;;;;;;;3.15;2.70;;;;;;;25.29;28.41;101638.53;4999662;28;20057;-70
2023/10/17 12:15:45;;;;;;;3.67;2.70;;;;;;;24.47;28.36;101635.81;4999853;28;20582;-70
2023/10/17 12:18:12;;;;;;;2.72;2.53;;;;;;;23.79;29.32;101628.66;4991743;28;20033;-71
2023/10/17 12:20:43;;;;;;;3.20;2.40;;;;;;;23.93;30.18;101621.91;4997550;28;20033;-71
2023/10/17 12:23:11;;;;;;;3.65;3.00;;;;;;;23.93;29.35;101618.31;4999045;28;20037;-70
2023/10/17 12:25:37;;;;;;;3.17;2.53;;;;;;;23.84;29.78;101626.34;5001451;28;20648;-70
2023/10/17 12:28:06;;;;;;;4.18;2.70;;;;;;;23.32;30.73;101614.88;4997518;28;20032;-71
2023/10/17 12:30:36;;;;;;;5.07;2.75;;;;;;;23.43;31.62;101607.63;4988908;28;20049;-70
2023/10/17 12:33:03;;;;;;;3.83;2.90;;;;;;;22.92;31.45;101601.44;4993762;28;20035;-70
2023/10/17 12:35:28;;;;;;;4.35;3.35;;;;;;;23.14;31.49;101594.03;4977355;28;20105;-71
2023/10/17 12:37:57;;;;;;;3.28;2.75;;;;;;;24.06;30.78;101576.22;5000990;28;20112;-72
2023/10/17 12:40:23;;;;;;;3.30;2.90;;;;;;;23.99;29.87;101571.50;4992257;28;20084;-68
2023/10/17 12:42:51;;;;;;;5.07;2.80;;;;;;;24.15;30.17;101574.47;4997654;28;20037;-70
2023/10/17 12:45:17;;;;;;;4.82;2.90;;;;;;;24.22;29.52;101574.72;4997393;28;20041;-71
2023/10/17 12:47:47;;;;;;;3.35;3.03;;;;;;;24.13;29.57;101570.19;4999808;28;20049;-71
2023/10/17 12:50:18;;;;;;;3.50;3.20;;;;;;;24.54;30.00;101563.47;4998925;28;20388;-69
2023/10/17 12:52:47;;;;;;;3.42;2.80;;;;;;;24.87;28.52;101547.47;5001452;28;20022;-70
2023/10/17 12:55:12;;;;;;;5.05;3.00;;;;;;;23.83;29.72;101545.81;4999047;28;20026;-70
2023/10/17 12:57:38;;;;;;;3.45;3.15;;;;;;;23.99;29.73;101545.16;5002140;28;20033;-69
2023/10/17 13:00:11;;;;;;;6.22;3.35;;;;;;;23.70;30.40;101548.00;4997513;28;20025;-68
2023/10/17 13:02:38;;;;;;;;;;;;;;;25.25;29.62;101533.59;4997506;28;21083;-71
2023/10/17 13:05:09;;;;;;;4.65;3.20;;;;;;;23.63;29.88;101545.97;4997201;28;20077;-70
2023/10/17 13:07:38;;;;;;;3.72;2.55;;;;;;;23.85;29.78;101546.50;5002583;28;20022;-69
2023/10/17 13:10:05;;;;;;;5.05;3.05;;;;;;;24.27;29.19;101539.78;5002545;28;20718;-70
2023/10/17 13:12:31;;;;;;;3.80;2.92;;;;;;;24.16;30.03;101534.50;4993237;28;20132;-70
2023/10/17 13:14:57;;;;;;;6.13;3.30;;;;;;;22.63;30.90;101537.06;4996070;28;20066;-70
2023/10/17 13:17:24;;;;;;;3.45;3.00;;;;;;;21.75;32.94;101536.81;4993562;28;20164;-70
2023/10/17 13:19:51;;;;;;;3.55;2.92;;;;;;;20.93;33.89;101536.56;5002086;28;20057;-71
2023/10/17 13:22:17;;;;;;;5.35;3.20;;;;;;;20.26;35.11;101527.59;4999709;28;20030;-69
2023/10/17 13:24:48;;;;;;;4.88;3.00;;;;;;;20.75;34.65;101523.59;5001911;28;20030;-70
2023/10/17 13:27:15;;;;;;;4.88;2.95;;;;;;;20.65;34.59;101522.66;4995099;28;20465;-69
2023/10/17 13:29:41;;;;;;;3.83;2.72;;;;;;;20.95;34.07;101521.94;4999936;28;20061;-70
2023/10/17 13:32:07;;;;;;;3.42;2.88;;;;;;;20.40;34.61;101535.44;4997935;28;20610;-68